Time,TemperatureF,DewpointF,PressureIn,WindDirection,WindDirectionDegrees,WindSpeedMPH,WindSpeedGustMPH,Humidity,HourlyPrecipIn,Conditions,Clouds,dailyrainin,SoftwareType,DateUTC
2013-02-19 00:00:00,65.4,63.3,30.02,ENE,58,0.0,1.0,93,0.00,,,0.07,Wunderground v.1.15,2013-02-18 13:00:00,
2013-02-19 00:05:00,65.7,63.9,30.02,NE,41,0.0,0.0,94,0.00,,,0.00,Wunderground v.1.15,2013-02-18 13:05:00,
2013-02-19 00:10:00,65.4,63.3,30.02,NE,45,0.0,1.0,93,0.00,,,-99.99,WeatherLink 5.9.3,2013-02-18 13:10:00,
2013-02-19 00:16:00,66.0,63.6,30.02,ENE,77,0.0,0.0,92,0.00,,,0.00,Wunderground v.1.15,2013-02-18 13:16:00,
2013-02-19 00:22:00,66.0,63.6,30.01,SE,126,0.0,0.0,92,0.00,,,0.00,Wunderground v.1.15,2013-02-18 13:22:00,
2013-02-19 00:27:00,65.9,63.5,30.01,SE,126,0.0,0.0,92,0.00,,,0.00,Wunderground v.1.15,2013-02-18 13:27:00,
2013-02-19 00:33:00,65.6,63.2,30.01,SE,126,0.0,0.0,92,0.00,,,0.00,Wunderground v.1.15,2013-02-18 13:33:00,
2013-02-19 00:38:00,65.6,63.2,30.00,SW,233,0.0,0.0,92,0.00,,,0.00,Wunderground v.1.15,2013-02-18 13:38:00,
2013-02-19 00:43:00,65.4,63.0,30.00,SW,232,0.0,0.0,92,0.00,,,0.00,Wunderground v.1.15,2013-02-18 13:43:00,
2013-02-19 00:49:00,65.3,62.9,29.99,SW,233,0.0,0.0,92,0.00,,,0.00,Wunderground v.1.15,2013-02-18 13:49:00,
2013-02-19 00:54:00,65.1,62.7,29.99,SW,232,0.0,0.0,92,0.00,,,0.00,Wunderground v.1.15,2013-02-18 13:54:00,
2013-02-19 01:00:00,65.2,62.8,29.99,North,-999,0.0,0.0,92,0.00,,,-99.99,WeatherLink 5.9.3,2013-02-18 14:00:00,
2013-02-19 01:06:00,64.6,62.2,29.98,SW,232,0.0,0.0,92,0.00,,,0.00,Wunderground v.1.15,2013-02-18 14:06:00,
2013-02-19 01:13:00,64.2,61.8,29.98,SW,232,0.0,0.0,92,0.00,,,0.00,Wunderground v.1.15,2013-02-18 14:13:00,
2013-02-19 01:18:00,64.2,62.1,29.98,SW,233,0.0,0.0,93,0.00,,,0.00,Wunderground v.1.15,2013-02-18 14:18:00,
2013-02-19 01:25:00,64.4,62.3,29.98,SW,231,0.0,0.0,93,0.00,,,0.00,Wunderground v.1.15,2013-02-18 14:25:00,
2013-02-19 01:30:00,64.3,62.5,29.98,North,-999,0.0,0.0,94,0.00,,,-99.99,WeatherLink 5.9.3,2013-02-18 14:30:00,
2013-02-19 01:36:00,64.0,61.9,29.98,WSW,240,0.0,0.0,93,0.00,,,0.00,Wunderground v.1.15,2013-02-18 14:36:00,
2013-02-19 01:41:00,63.8,61.7,29.98,WSW,241,0.0,0.0,93,0.00,,,0.00,Wunderground v.1.15,2013-02-18 14:41:00,
2013-02-19 01:46:00,63.7,61.9,29.98,WSW,241,0.0,0.0,94,0.00,,,0.00,Wunderground v.1.15,2013-02-18 14:46:00,
2013-02-19 01:52:00,63.5,61.7,29.98,WSW,241,0.0,0.0,94,0.00,,,0.00,Wunderground v.1.15,2013-02-18 14:52:00,
2013-02-19 01:57:00,63.5,61.7,29.98,WNW,283,0.0,0.0,94,0.00,,,0.00,Wunderground v.1.15,2013-02-18 14:57:00,
2013-02-19 02:02:00,63.3,61.5,29.97,WNW,282,0.0,0.0,94,0.00,,,0.00,Wunderground v.1.15,2013-02-18 15:02:00,
2013-02-19 02:07:00,63.3,61.5,29.97,WNW,283,0.0,0.0,94,0.00,,,0.00,Wunderground v.1.15,2013-02-18 15:07:00,
2013-02-19 02:12:00,63.0,61.2,29.98,West,281,0.0,0.0,94,0.00,,,0.00,Wunderground v.1.15,2013-02-18 15:12:00,
2013-02-19 02:17:00,63.0,61.2,29.98,WNW,283,0.0,0.0,94,0.00,,,0.00,Wunderground v.1.15,2013-02-18 15:17:00,
2013-02-19 02:22:00,62.8,61.0,29.98,West,281,0.0,0.0,94,0.00,,,0.00,Wunderground v.1.15,2013-02-18 15:22:00,
2013-02-19 02:27:00,62.7,60.9,29.98,West,281,0.0,0.0,94,0.00,,,0.00,Wunderground v.1.15,2013-02-18 15:27:00,
2013-02-19 02:32:00,62.7,60.9,29.98,WNW,283,0.0,0.0,94,0.00,,,0.00,Wunderground v.1.15,2013-02-18 15:32:00,
2013-02-19 02:38:00,62.6,60.8,29.98,West,281,0.0,0.0,94,0.00,,,0.00,Wunderground v.1.15,2013-02-18 15:38:00,
2013-02-19 02:43:00,62.7,61.2,29.97,West,281,0.0,0.0,95,0.00,,,0.00,Wunderground v.1.15,2013-02-18 15:43:00,
2013-02-19 02:48:00,62.6,60.8,29.97,WNW,282,0.0,0.0,94,0.00,,,0.00,Wunderground v.1.15,2013-02-18 15:48:00,
2013-02-19 02:53:00,62.5,61.0,29.97,NW,313,0.0,0.0,95,0.00,,,0.00,Wunderground v.1.15,2013-02-18 15:53:00,
2013-02-19 02:58:00,62.2,60.5,29.96,NW,312,0.0,0.0,94,0.00,,,0.00,Wunderground v.1.15,2013-02-18 15:58:00,
2013-02-19 03:03:00,62.1,60.7,29.96,NW,313,0.0,0.0,95,0.00,,,0.00,Wunderground v.1.15,2013-02-18 16:03:00,
2013-02-19 03:08:00,62.0,60.6,29.96,NW,313,0.0,0.0,95,0.00,,,0.00,Wunderground v.1.15,2013-02-18 16:08:00,
2013-02-19 03:13:00,61.8,60.1,29.96,NW,313,0.0,0.0,94,0.00,,,0.00,Wunderground v.1.15,2013-02-18 16:13:00,
2013-02-19 03:18:00,61.6,60.2,29.96,NW,312,0.0,0.0,95,0.00,,,0.00,Wunderground v.1.15,2013-02-18 16:18:00,
2013-02-19 03:24:00,61.6,60.2,29.96,NW,313,0.0,0.0,95,0.00,,,0.00,Wunderground v.1.15,2013-02-18 16:24:00,
2013-02-19 03:29:00,61.5,60.1,29.96,NW,313,0.0,0.0,95,0.00,,,0.00,Wunderground v.1.15,2013-02-18 16:29:00,
2013-02-19 03:34:00,61.4,60.0,29.96,NW,313,0.0,0.0,95,0.00,,,0.00,Wunderground v.1.15,2013-02-18 16:34:00,
2013-02-19 03:39:00,61.4,60.0,29.96,NW,313,0.0,0.0,95,0.00,,,0.00,Wunderground v.1.15,2013-02-18 16:39:00,
2013-02-19 03:44:00,61.3,59.9,29.96,NW,313,0.0,0.0,95,0.00,,,0.00,Wunderground v.1.15,2013-02-18 16:44:00,
2013-02-19 03:49:00,61.2,59.8,29.96,NW,313,0.0,0.0,95,0.00,,,0.00,Wunderground v.1.15,2013-02-18 16:49:00,
2013-02-19 03:54:00,61.2,59.8,29.96,NW,313,0.0,0.0,95,0.00,,,0.00,Wunderground v.1.15,2013-02-18 16:54:00,
2013-02-19 03:59:00,61.0,59.6,29.96,NW,312,0.0,0.0,95,0.00,,,0.00,Wunderground v.1.15,2013-02-18 16:59:00,
2013-02-19 04:04:00,60.9,59.5,29.96,NW,312,0.0,0.0,95,0.00,,,0.00,Wunderground v.1.15,2013-02-18 17:04:00,
2013-02-19 04:09:00,60.6,59.2,29.96,NW,313,0.0,0.0,95,0.00,,,0.00,Wunderground v.1.15,2013-02-18 17:09:00,
2013-02-19 04:14:00,60.5,59.1,29.95,NW,313,0.0,0.0,95,0.00,,,0.00,Wunderground v.1.15,2013-02-18 17:14:00,
2013-02-19 04:20:00,60.5,59.1,29.95,NW,313,0.0,0.0,95,0.00,,,0.00,Wunderground v.1.15,2013-02-18 17:20:00,
2013-02-19 04:25:00,60.5,59.1,29.95,NW,312,0.0,0.0,95,0.00,,,0.00,Wunderground v.1.15,2013-02-18 17:25:00,
2013-02-19 04:30:00,60.7,59.6,29.96,NW,313,0.0,0.0,96,0.00,,,0.00,Wunderground v.1.15,2013-02-18 17:30:00,
2013-02-19 04:35:00,60.7,59.6,29.96,NW,312,0.0,0.0,96,0.00,,,0.00,Wunderground v.1.15,2013-02-18 17:35:00,
2013-02-19 04:40:00,60.6,59.2,29.96,NW,313,0.0,0.0,95,0.00,,,0.00,Wunderground v.1.15,2013-02-18 17:40:00,
2013-02-19 04:45:00,60.6,59.5,29.95,NW,312,0.0,0.0,96,0.00,,,0.00,Wunderground v.1.15,2013-02-18 17:45:00,
2013-02-19 04:50:00,60.6,59.5,29.95,NW,312,0.0,0.0,96,0.00,,,0.00,Wunderground v.1.15,2013-02-18 17:50:00,
2013-02-19 04:55:00,60.4,59.0,29.95,WNW,292,0.0,0.0,95,0.00,,,0.00,Wunderground v.1.15,2013-02-18 17:55:00,
2013-02-19 05:00:00,60.5,59.4,29.95,WNW,292,0.0,0.0,96,0.00,,,0.00,Wunderground v.1.15,2013-02-18 18:00:00,
2013-02-19 05:05:00,60.4,59.0,29.95,WNW,291,0.0,0.0,95,0.00,,,0.00,Wunderground v.1.15,2013-02-18 18:05:00,
2013-02-19 05:10:00,60.2,58.8,29.95,WNW,291,0.0,0.0,95,0.00,,,0.00,Wunderground v.1.15,2013-02-18 18:10:00,
2013-02-19 05:15:00,60.4,59.3,29.95,WNW,292,0.0,0.0,96,0.00,,,0.00,Wunderground v.1.15,2013-02-18 18:15:00,
2013-02-19 05:20:00,60.4,59.3,29.95,WNW,292,0.0,0.0,96,0.00,,,0.00,Wunderground v.1.15,2013-02-18 18:20:00,
2013-02-19 05:25:00,60.3,59.2,29.95,WNW,291,0.0,0.0,96,0.00,,,0.00,Wunderground v.1.15,2013-02-18 18:25:00,
2013-02-19 05:30:00,60.4,59.3,29.95,North,-999,0.0,0.0,96,0.00,,,-99.99,WeatherLink 5.9.3,2013-02-18 18:30:00,
2013-02-19 05:35:00,60.2,59.1,29.96,WNW,291,0.0,0.0,96,0.00,,,0.00,Wunderground v.1.15,2013-02-18 18:35:00,
2013-02-19 05:40:00,60.2,59.1,29.95,North,-999,0.0,0.0,96,0.00,,,-99.99,WeatherLink 5.9.3,2013-02-18 18:40:00,
2013-02-19 05:45:00,60.5,59.4,29.96,WNW,291,0.0,1.0,96,0.00,,,0.00,Wunderground v.1.15,2013-02-18 18:45:00,
2013-02-19 05:51:00,60.4,59.3,29.96,North,-999,0.0,0.0,96,0.00,,,-99.99,WeatherLink 5.9.3,2013-02-18 18:51:00,
2013-02-19 05:56:00,60.4,59.3,29.96,WNW,291,0.0,0.0,96,0.00,,,0.00,Wunderground v.1.15,2013-02-18 18:56:00,
2013-02-19 06:01:00,60.5,59.4,29.96,North,-999,0.0,0.0,96,0.00,,,-99.99,WeatherLink 5.9.3,2013-02-18 19:01:00,
2013-02-19 06:06:00,60.1,59.0,29.96,WNW,292,0.0,0.0,96,0.00,,,0.00,Wunderground v.1.15,2013-02-18 19:06:00,
2013-02-19 06:11:00,60.3,59.2,29.96,North,-999,0.0,0.0,96,0.00,,,-99.99,WeatherLink 5.9.3,2013-02-18 19:11:00,
2013-02-19 06:16:00,60.1,59.0,29.96,WNW,291,0.0,0.0,96,0.00,,,0.00,Wunderground v.1.15,2013-02-18 19:16:00,
2013-02-19 06:21:00,60.0,58.9,29.96,WNW,291,0.0,0.0,96,0.00,,,0.00,Wunderground v.1.15,2013-02-18 19:21:00,
2013-02-19 06:26:00,59.8,58.7,29.96,WNW,292,0.0,0.0,96,0.00,,,0.00,Wunderground v.1.15,2013-02-18 19:26:00,
2013-02-19 06:31:00,59.7,58.6,29.96,WNW,292,0.0,0.0,96,0.00,,,0.00,Wunderground v.1.15,2013-02-18 19:31:00,
2013-02-19 06:36:00,59.8,58.7,29.96,WNW,291,0.0,0.0,96,0.00,,,0.00,Wunderground v.1.15,2013-02-18 19:36:00,
2013-02-19 06:41:00,60.1,59.0,29.96,North,-999,0.0,0.0,96,0.00,,,-99.99,WeatherLink 5.9.3,2013-02-18 19:41:00,
2013-02-19 06:46:00,60.1,59.0,29.97,WSW,252,0.0,0.0,96,0.00,,,0.00,Wunderground v.1.15,2013-02-18 19:46:00,
2013-02-19 06:51:00,60.3,59.2,29.97,WSW,252,0.0,0.0,96,0.00,,,0.00,Wunderground v.1.15,2013-02-18 19:51:00,
2013-02-19 06:56:00,60.4,59.3,29.97,WSW,252,0.0,0.0,96,0.00,,,0.00,Wunderground v.1.15,2013-02-18 19:56:00,
2013-02-19 07:01:00,60.5,59.4,29.97,WSW,252,0.0,0.0,96,0.00,,,0.00,Wunderground v.1.15,2013-02-18 20:01:00,
2013-02-19 07:06:00,61.3,60.4,29.98,WSW,252,0.0,0.0,97,0.00,,,0.00,Wunderground v.1.15,2013-02-18 20:06:00,
2013-02-19 07:11:00,62.2,61.3,29.98,WSW,252,0.0,0.0,97,0.00,,,0.01,Wunderground v.1.15,2013-02-18 20:11:00,
2013-02-19 07:16:00,62.5,61.6,29.98,NW,319,0.0,1.0,97,0.00,,,0.01,Wunderground v.1.15,2013-02-18 20:16:00,
2013-02-19 07:22:00,62.9,62.0,29.98,NE,36,0.0,1.0,97,0.00,,,0.01,Wunderground v.1.15,2013-02-18 20:22:00,
2013-02-19 07:27:00,63.1,61.9,29.98,NE,38,0.0,1.0,96,0.00,,,0.01,Wunderground v.1.15,2013-02-18 20:27:00,
2013-02-19 07:32:00,63.4,62.2,29.98,WNW,288,0.0,0.0,96,0.00,,,0.01,Wunderground v.1.15,2013-02-18 20:32:00,
2013-02-19 07:37:00,63.9,62.7,29.98,South,188,0.0,1.0,96,0.00,,,0.01,Wunderground v.1.15,2013-02-18 20:37:00,
2013-02-19 07:42:00,64.3,63.1,29.98,WNW,295,0.0,1.0,96,0.00,,,0.01,Wunderground v.1.15,2013-02-18 20:42:00,
2013-02-19 07:47:00,64.8,63.6,29.98,SSW,200,0.0,1.0,96,0.00,,,0.01,Wunderground v.1.15,2013-02-18 20:47:00,
2013-02-19 07:52:00,65.5,64.0,29.98,SSW,199,0.0,1.0,95,0.00,,,0.01,Wunderground v.1.15,2013-02-18 20:52:00,
2013-02-19 07:58:00,66.4,64.6,29.98,SSW,197,0.0,1.0,94,0.00,,,0.01,Wunderground v.1.15,2013-02-18 20:58:00,
2013-02-19 08:03:00,67.5,64.8,29.98,SSE,149,1.0,1.0,91,0.00,,,0.01,Wunderground v.1.15,2013-02-18 21:03:00,
2013-02-19 08:08:00,68.4,65.0,29.98,South,189,0.0,1.0,89,0.00,,,0.01,Wunderground v.1.15,2013-02-18 21:08:00,
2013-02-19 08:13:00,69.2,65.2,29.98,SSW,206,1.0,1.0,87,0.00,,,0.01,Wunderground v.1.15,2013-02-18 21:13:00,
2013-02-19 08:18:00,69.8,65.1,29.98,SSW,210,0.0,1.0,85,0.00,,,0.01,Wunderground v.1.15,2013-02-18 21:18:00,
2013-02-19 08:22:00,70.5,65.8,29.98,WNW,293,0.0,1.0,85,0.00,,,0.01,Wunderground v.1.15,2013-02-18 21:22:00,
2013-02-19 08:28:00,71.4,66.3,29.98,West,272,0.0,2.0,84,0.00,,,0.01,Wunderground v.1.15,2013-02-18 21:28:00,
2013-02-19 08:33:00,72.3,65.4,29.99,SSW,195,0.0,2.0,79,0.00,,,0.01,Wunderground v.1.15,2013-02-18 21:33:00,
2013-02-19 08:38:00,72.9,66.0,29.99,WSW,248,0.0,2.0,79,0.00,,,0.01,Wunderground v.1.15,2013-02-18 21:38:00,
2013-02-19 08:43:00,73.5,65.5,29.99,South,172,1.0,2.0,76,0.00,,,0.01,Wunderground v.1.15,2013-02-18 21:43:00,
2013-02-19 08:48:00,73.1,65.8,29.99,South,181,2.0,2.0,78,0.00,,,0.01,Wunderground v.1.15,2013-02-18 21:48:00,
2013-02-19 08:53:00,73.3,66.0,29.99,ENE,69,0.0,2.0,78,0.00,,,0.01,Wunderground v.1.15,2013-02-18 21:53:00,
2013-02-19 08:58:00,73.5,65.5,29.99,South,175,1.0,3.0,76,0.00,,,0.01,Wunderground v.1.15,2013-02-18 21:58:00,
2013-02-19 09:03:00,73.5,65.5,29.99,ENE,61,0.0,2.0,76,0.00,,,0.01,Wunderground v.1.15,2013-02-18 22:03:00,
2013-02-19 09:08:00,74.1,66.0,29.99,South,190,1.0,2.0,76,0.00,,,0.01,Wunderground v.1.15,2013-02-18 22:08:00,
2013-02-19 09:13:00,74.5,66.1,29.99,West,269,0.0,3.0,75,0.00,,,0.01,Wunderground v.1.15,2013-02-18 22:13:00,
2013-02-19 09:18:00,74.8,66.0,30.00,ESE,108,1.0,4.0,74,0.00,,,0.01,Wunderground v.1.15,2013-02-18 22:18:00,
2013-02-19 09:23:00,74.8,66.3,30.00,South,172,1.0,3.0,75,0.00,,,0.01,Wunderground v.1.15,2013-02-18 22:23:00,
2013-02-19 09:28:00,74.6,65.4,30.00,SSE,167,1.0,3.0,73,0.00,,,0.01,Wunderground v.1.15,2013-02-18 22:28:00,
2013-02-19 09:33:00,73.9,65.5,30.00,ENE,69,1.0,2.0,75,0.00,,,0.01,Wunderground v.1.15,2013-02-18 22:33:00,
2013-02-19 09:38:00,74.2,65.8,30.00,ESE,120,0.0,2.0,75,0.00,,,0.01,Wunderground v.1.15,2013-02-18 22:38:00,
2013-02-19 09:43:00,74.7,65.5,30.00,ENE,69,0.0,4.0,73,0.00,,,0.01,Wunderground v.1.15,2013-02-18 22:43:00,
2013-02-19 09:48:00,74.3,65.5,29.99,SSE,166,0.0,4.0,74,0.00,,,0.01,Wunderground v.1.15,2013-02-18 22:48:00,
2013-02-19 09:53:00,74.9,66.4,30.00,SSE,157,0.0,2.0,75,0.00,,,0.01,Wunderground v.1.15,2013-02-18 22:53:00,
2013-02-19 09:58:00,75.5,65.8,30.00,NE,48,2.0,4.0,72,0.00,,,0.01,Wunderground v.1.15,2013-02-18 22:58:00,
2013-02-19 10:04:00,75.6,65.9,30.00,East,93,0.0,3.0,72,0.00,,,0.01,Wunderground v.1.15,2013-02-18 23:04:00,
2013-02-19 10:09:00,76.1,66.4,29.99,East,94,1.0,3.0,72,0.00,,,0.01,Wunderground v.1.15,2013-02-18 23:09:00,
2013-02-19 10:14:00,76.4,66.3,29.99,NNW,338,0.0,3.0,71,0.00,,,0.01,Wunderground v.1.15,2013-02-18 23:14:00,
2013-02-19 10:19:00,77.0,66.5,30.00,South,183,2.0,4.0,70,0.00,,,0.01,Wunderground v.1.15,2013-02-18 23:19:00,
2013-02-19 10:24:00,76.8,66.3,29.99,East,86,1.0,3.0,70,0.00,,,0.01,Wunderground v.1.15,2013-02-18 23:24:00,
2013-02-19 10:29:00,76.8,66.7,30.00,SE,136,1.0,5.0,71,0.00,,,0.01,Wunderground v.1.15,2013-02-18 23:29:00,
2013-02-19 10:34:00,77.3,67.6,29.99,ENE,65,1.0,4.0,72,0.00,,,0.01,Wunderground v.1.15,2013-02-18 23:34:00,
2013-02-19 10:39:00,77.8,66.4,29.99,SE,135,2.0,6.0,68,0.00,,,0.01,Wunderground v.1.15,2013-02-18 23:39:00,
2013-02-19 10:44:00,78.1,66.2,29.99,SW,220,2.0,2.0,67,0.00,,,0.01,Wunderground v.1.15,2013-02-18 23:44:00,
2013-02-19 10:49:00,78.2,66.3,29.99,NW,323,0.0,6.0,67,0.00,,,0.01,Wunderground v.1.15,2013-02-18 23:49:00,
2013-02-19 10:54:00,78.1,67.1,29.99,ENE,65,0.0,4.0,69,0.00,,,0.01,Wunderground v.1.15,2013-02-18 23:54:00,
2013-02-19 10:59:00,78.5,66.2,29.99,WSW,240,2.0,4.0,66,0.00,,,0.01,Wunderground v.1.15,2013-02-18 23:59:00,
2013-02-19 11:04:00,78.8,66.9,29.99,South,189,0.0,3.0,67,0.00,,,0.01,Wunderground v.1.15,2013-02-19 00:04:00,
2013-02-19 11:09:00,79.3,67.0,29.99,SSW,202,2.0,3.0,66,0.00,,,0.01,Wunderground v.1.15,2013-02-19 00:09:00,
2013-02-19 11:14:00,79.6,66.8,29.98,NNE,30,3.0,5.0,65,0.00,,,0.01,Wunderground v.1.15,2013-02-19 00:14:00,
2013-02-19 11:19:00,79.9,66.2,29.98,SSW,199,2.0,5.0,63,0.00,,,0.01,Wunderground v.1.15,2013-02-19 00:19:00,
2013-02-19 11:24:00,80.2,65.1,29.98,East,82,1.0,4.0,60,0.00,,,0.01,Wunderground v.1.15,2013-02-19 00:24:00,
2013-02-19 11:29:00,79.9,65.7,29.98,NNW,339,0.0,5.0,62,0.00,,,0.01,Wunderground v.1.15,2013-02-19 00:29:00,
2013-02-19 11:34:00,80.7,66.0,29.98,East,86,2.0,4.0,61,0.00,,,0.01,Wunderground v.1.15,2013-02-19 00:34:00,
2013-02-19 11:39:00,81.0,66.3,29.98,ENE,77,0.0,4.0,61,0.00,,,0.01,Wunderground v.1.15,2013-02-19 00:39:00,
2013-02-19 11:44:00,80.9,66.2,29.98,NNE,24,2.0,5.0,61,0.00,,,0.01,Wunderground v.1.15,2013-02-19 00:44:00,
2013-02-19 11:49:00,81.0,64.8,29.97,NNE,17,3.0,5.0,58,0.00,,,0.01,Wunderground v.1.15,2013-02-19 00:49:00,
2013-02-19 11:54:00,81.6,65.9,29.97,North,349,0.0,5.0,59,0.00,,,0.01,Wunderground v.1.15,2013-02-19 00:54:00,
2013-02-19 11:59:00,82.0,66.3,29.97,NE,37,2.0,5.0,59,0.00,,,0.01,Wunderground v.1.15,2013-02-19 00:59:00,
2013-02-19 12:05:00,81.7,65.0,29.97,ENE,65,2.0,6.0,57,0.00,,,0.01,Wunderground v.1.15,2013-02-19 01:05:00,
2013-02-19 12:10:00,82.0,65.3,29.97,NNE,22,2.0,6.0,57,0.00,,,-99.99,WeatherLink 5.9.3,2013-02-19 01:10:00,
2013-02-19 12:15:00,83.0,65.2,29.97,NNE,28,4.0,6.0,55,0.00,,,0.01,Wunderground v.1.15,2013-02-19 01:15:00,
2013-02-19 12:20:00,82.3,66.0,29.97,NNE,22,1.0,3.0,58,0.00,,,-99.99,WeatherLink 5.9.3,2013-02-19 01:20:00,
2013-02-19 12:25:00,82.3,64.5,29.96,NE,35,2.0,10.0,55,0.00,,,0.01,Wunderground v.1.15,2013-02-19 01:25:00,
2013-02-19 12:31:00,82.7,64.9,29.96,NNE,22,2.0,5.0,55,0.00,,,-99.99,WeatherLink 5.9.3,2013-02-19 01:31:00,
2013-02-19 12:36:00,83.1,65.8,29.96,NNE,24,2.0,7.0,56,0.00,,,0.01,Wunderground v.1.15,2013-02-19 01:36:00,
2013-02-19 12:41:00,82.6,65.3,29.96,NNE,22,2.0,7.0,56,0.00,,,-99.99,WeatherLink 5.9.3,2013-02-19 01:41:00,
2013-02-19 12:46:00,83.2,65.9,29.95,ENE,61,4.0,6.0,56,0.00,,,0.01,Wunderground v.1.15,2013-02-19 01:46:00,
2013-02-19 12:51:00,83.0,66.2,29.95,East,86,1.0,2.0,57,0.00,,,0.01,Wunderground v.1.15,2013-02-19 01:51:00,
2013-02-19 12:56:00,83.3,66.0,29.95,East,91,2.0,5.0,56,0.00,,,0.01,Wunderground v.1.15,2013-02-19 01:56:00,
2013-02-19 13:01:00,83.0,66.2,29.95,ENE,67,2.0,6.0,57,0.00,,,-99.99,WeatherLink 5.9.3,2013-02-19 02:01:00,
2013-02-19 13:06:00,82.5,64.7,29.94,East,94,0.0,2.0,55,0.00,,,0.01,Wunderground v.1.15,2013-02-19 02:06:00,
2013-02-19 13:11:00,81.8,64.6,29.94,East,86,1.0,3.0,56,0.00,,,0.01,Wunderground v.1.15,2013-02-19 02:11:00,
2013-02-19 13:16:00,81.5,64.8,29.94,ENE,65,4.0,5.0,57,0.00,,,0.01,Wunderground v.1.15,2013-02-19 02:16:00,
2013-02-19 13:21:00,81.5,66.3,29.94,NNE,23,1.0,2.0,60,0.00,,,0.01,Wunderground v.1.15,2013-02-19 02:21:00,
2013-02-19 13:26:00,81.5,64.3,29.94,NNE,32,1.0,3.0,56,0.00,,,0.01,Wunderground v.1.15,2013-02-19 02:26:00,
2013-02-19 13:31:00,81.1,64.4,29.93,ENE,70,1.0,2.0,57,0.00,,,0.01,Wunderground v.1.15,2013-02-19 02:31:00,
2013-02-19 13:36:00,80.9,64.2,29.93,ENE,73,2.0,3.0,57,0.00,,,0.01,Wunderground v.1.15,2013-02-19 02:36:00,
2013-02-19 13:41:00,81.4,65.7,29.93,ENE,66,2.0,2.0,59,0.00,,,0.01,Wunderground v.1.15,2013-02-19 02:41:00,
2013-02-19 13:46:00,82.1,64.3,29.93,SSE,167,2.0,7.0,55,0.00,,,0.01,Wunderground v.1.15,2013-02-19 02:46:00,
2013-02-19 13:51:00,83.1,64.7,29.92,South,189,3.0,3.0,54,0.00,,,0.01,Wunderground v.1.15,2013-02-19 02:51:00,
2013-02-19 13:56:00,83.8,64.8,29.92,East,96,0.0,3.0,53,0.00,,,0.01,Wunderground v.1.15,2013-02-19 02:56:00,
2013-02-19 14:01:00,84.5,65.5,29.92,NE,38,1.0,2.0,53,0.00,,,0.01,Wunderground v.1.15,2013-02-19 03:01:00,
2013-02-19 14:06:00,84.7,64.0,29.92,ENE,77,3.0,5.0,50,0.00,,,0.01,Wunderground v.1.15,2013-02-19 03:06:00,
2013-02-19 14:11:00,84.7,64.0,29.92,WNW,297,0.0,4.0,50,0.00,,,0.01,Wunderground v.1.15,2013-02-19 03:11:00,
2013-02-19 14:16:00,85.4,64.1,29.92,West,279,3.0,4.0,49,0.00,,,0.01,Wunderground v.1.15,2013-02-19 03:16:00,
2013-02-19 14:21:00,86.0,66.3,29.91,WSW,251,1.0,3.0,52,0.00,,,0.01,Wunderground v.1.15,2013-02-19 03:21:00,
2013-02-19 14:26:00,86.1,64.1,29.91,West,276,1.0,5.0,48,0.00,,,0.01,Wunderground v.1.15,2013-02-19 03:26:00,
2013-02-19 14:32:00,86.0,65.8,29.91,ESE,122,2.0,4.0,51,0.00,,,0.01,Wunderground v.1.15,2013-02-19 03:32:00,
2013-02-19 14:37:00,84.8,65.2,29.91,ENE,58,1.0,6.0,52,0.00,,,0.01,Wunderground v.1.15,2013-02-19 03:37:00,
2013-02-19 14:42:00,84.1,64.0,29.91,NE,42,0.0,4.0,51,0.00,,,0.01,Wunderground v.1.15,2013-02-19 03:42:00,
2013-02-19 14:47:00,84.2,64.1,29.90,SE,146,0.0,4.0,51,0.00,,,0.01,Wunderground v.1.15,2013-02-19 03:47:00,
2013-02-19 14:52:00,84.9,63.6,29.90,East,100,1.0,3.0,49,0.00,,,0.01,Wunderground v.1.15,2013-02-19 03:52:00,
2013-02-19 14:57:00,85.6,63.7,29.90,SE,124,1.0,3.0,48,0.00,,,0.01,Wunderground v.1.15,2013-02-19 03:57:00,
2013-02-19 15:02:00,86.3,64.3,29.90,NW,309,2.0,3.0,48,0.00,,,0.01,Wunderground v.1.15,2013-02-19 04:02:00,
2013-02-19 15:07:00,87.0,64.9,29.89,North,1,2.0,6.0,48,0.00,,,0.01,Wunderground v.1.15,2013-02-19 04:07:00,
2013-02-19 15:13:00,86.0,64.0,29.89,East,87,2.0,3.0,48,0.00,,,0.01,Wunderground v.1.15,2013-02-19 04:13:00,
2013-02-19 15:18:00,84.9,63.6,29.89,ENE,72,1.0,5.0,49,0.00,,,0.01,Wunderground v.1.15,2013-02-19 04:18:00,
2013-02-19 15:23:00,84.3,63.1,29.89,NE,55,1.0,3.0,49,0.00,,,0.01,Wunderground v.1.15,2013-02-19 04:23:00,
2013-02-19 15:28:00,84.5,66.0,29.89,SE,134,4.0,6.0,54,0.00,,,0.01,Wunderground v.1.15,2013-02-19 04:28:00,
2013-02-19 15:33:00,84.6,66.1,29.89,ENE,72,5.0,8.0,54,0.00,,,0.01,Wunderground v.1.15,2013-02-19 04:33:00,
2013-02-19 15:38:00,83.7,65.3,29.89,East,99,2.0,8.0,54,0.00,,,0.01,Wunderground v.1.15,2013-02-19 04:38:00,
2013-02-19 15:43:00,83.2,66.4,29.89,NNE,23,3.0,8.0,57,0.00,,,0.01,Wunderground v.1.15,2013-02-19 04:43:00,
2013-02-19 15:48:00,84.1,67.2,29.89,East,97,2.0,8.0,57,0.00,,,0.01,Wunderground v.1.15,2013-02-19 04:48:00,
2013-02-19 15:53:00,84.9,68.5,29.89,SSW,203,4.0,7.0,58,0.00,,,0.01,Wunderground v.1.15,2013-02-19 04:53:00,
2013-02-19 15:58:00,84.4,67.5,29.89,NE,51,6.0,11.0,57,0.00,,,0.01,Wunderground v.1.15,2013-02-19 04:58:00,
2013-02-19 16:00:00,84.1,67.2,29.89,NE,54,4.0,11.0,57,0.00,,,0.01,Wunderground v.1.15,2013-02-19 05:00:00,
2013-02-19 16:05:00,83.2,67.4,29.89,ENE,62,3.0,8.0,59,0.00,,,0.01,Wunderground v.1.15,2013-02-19 05:05:00,
2013-02-19 16:11:00,83.2,67.4,29.89,ENE,67,3.0,7.0,59,0.00,,,-99.99,WeatherLink 5.9.3,2013-02-19 05:11:00,
2013-02-19 16:16:00,81.8,67.5,29.89,East,86,2.0,7.0,62,0.00,,,0.01,Wunderground v.1.15,2013-02-19 05:16:00,
2013-02-19 16:21:00,81.6,67.3,29.89,NE,54,9.0,9.0,62,0.00,,,0.01,Wunderground v.1.15,2013-02-19 05:21:00,
2013-02-19 16:26:00,81.4,67.1,29.89,ENE,70,6.0,9.0,62,0.00,,,0.01,Wunderground v.1.15,2013-02-19 05:26:00,
2013-02-19 16:31:00,81.7,67.4,29.89,NE,45,3.0,8.0,62,0.00,,,-99.99,WeatherLink 5.9.3,2013-02-19 05:31:00,
2013-02-19 16:36:00,80.8,66.6,29.89,East,101,5.0,10.0,62,0.00,,,0.01,Wunderground v.1.15,2013-02-19 05:36:00,
2013-02-19 16:41:00,80.4,66.6,29.90,East,89,1.0,4.0,63,0.00,,,0.01,Wunderground v.1.15,2013-02-19 05:41:00,
2013-02-19 16:46:00,80.1,66.8,29.89,NE,56,8.0,9.0,64,0.00,,,0.01,Wunderground v.1.15,2013-02-19 05:46:00,
2013-02-19 16:51:00,80.3,67.0,29.89,NNE,32,5.0,8.0,64,0.00,,,0.01,Wunderground v.1.15,2013-02-19 05:51:00,
2013-02-19 16:56:00,80.5,66.7,29.89,ENE,63,2.0,11.0,63,0.00,,,0.01,Wunderground v.1.15,2013-02-19 05:56:00,
2013-02-19 17:01:00,80.7,67.4,29.89,East,82,1.0,8.0,64,0.00,,,0.01,Wunderground v.1.15,2013-02-19 06:01:00,
2013-02-19 17:06:00,81.2,67.4,29.89,NE,52,5.0,8.0,63,0.00,,,0.01,Wunderground v.1.15,2013-02-19 06:06:00,
2013-02-19 17:11:00,81.1,66.8,29.90,NE,40,7.0,11.0,62,0.00,,,0.01,Wunderground v.1.15,2013-02-19 06:11:00,
2013-02-19 17:16:00,80.9,66.7,29.90,East,96,6.0,11.0,62,0.00,,,0.01,Wunderground v.1.15,2013-02-19 06:16:00,
2013-02-19 17:21:00,81.0,66.3,29.90,NNE,27,2.0,8.0,61,0.00,,,0.01,Wunderground v.1.15,2013-02-19 06:21:00,
2013-02-19 17:26:00,80.8,66.6,29.90,East,90,3.0,11.0,62,0.00,,,0.01,Wunderground v.1.15,2013-02-19 06:26:00,
2013-02-19 17:31:00,80.6,65.9,29.90,NNE,24,3.0,6.0,61,0.00,,,0.01,Wunderground v.1.15,2013-02-19 06:31:00,
2013-02-19 17:36:00,79.9,65.7,29.90,NE,46,7.0,7.0,62,0.00,,,0.01,Wunderground v.1.15,2013-02-19 06:36:00,
2013-02-19 17:41:00,80.0,66.3,29.90,NE,38,3.0,5.0,63,0.00,,,0.01,Wunderground v.1.15,2013-02-19 06:41:00,
2013-02-19 17:46:00,80.2,66.5,29.90,ESE,115,2.0,5.0,63,0.00,,,0.01,Wunderground v.1.15,2013-02-19 06:46:00,
2013-02-19 17:51:00,80.2,66.0,29.90,East,87,2.0,7.0,62,0.00,,,0.01,Wunderground v.1.15,2013-02-19 06:51:00,
2013-02-19 17:56:00,80.3,66.6,29.90,ESE,110,4.0,7.0,63,0.00,,,0.01,Wunderground v.1.15,2013-02-19 06:56:00,
2013-02-19 18:01:00,80.1,65.9,29.90,SSE,167,4.0,5.0,62,0.00,,,0.01,Wunderground v.1.15,2013-02-19 07:01:00,
2013-02-19 18:07:00,79.9,66.2,29.90,ESE,110,3.0,9.0,63,0.00,,,0.01,Wunderground v.1.15,2013-02-19 07:07:00,
2013-02-19 18:12:00,79.9,66.6,29.91,NNE,15,3.0,4.0,64,0.00,,,0.01,Wunderground v.1.15,2013-02-19 07:12:00,
2013-02-19 18:17:00,79.8,67.0,29.91,East,97,3.0,5.0,65,0.00,,,0.01,Wunderground v.1.15,2013-02-19 07:17:00,
2013-02-19 18:22:00,79.5,66.7,29.91,ENE,66,6.0,8.0,65,0.00,,,0.01,Wunderground v.1.15,2013-02-19 07:22:00,
2013-02-19 18:27:00,78.9,65.7,29.91,East,89,2.0,8.0,64,0.00,,,0.01,Wunderground v.1.15,2013-02-19 07:27:00,
2013-02-19 18:32:00,78.8,66.0,29.91,East,98,3.0,5.0,65,0.00,,,0.01,Wunderground v.1.15,2013-02-19 07:32:00,
2013-02-19 18:37:00,78.7,66.4,29.91,East,98,2.0,8.0,66,0.00,,,0.01,Wunderground v.1.15,2013-02-19 07:37:00,
2013-02-19 18:42:00,78.7,65.9,29.91,ESE,118,2.0,4.0,65,0.00,,,0.01,Wunderground v.1.15,2013-02-19 07:42:00,
2013-02-19 18:47:00,78.6,66.3,29.91,ENE,68,1.0,6.0,66,0.00,,,0.01,Wunderground v.1.15,2013-02-19 07:47:00,
2013-02-19 18:52:00,78.3,66.0,29.91,NNE,30,2.0,6.0,66,0.00,,,0.01,Wunderground v.1.15,2013-02-19 07:52:00,
2013-02-19 18:57:00,77.9,65.6,29.91,ENE,65,3.0,6.0,66,0.00,,,0.01,Wunderground v.1.15,2013-02-19 07:57:00,
2013-02-19 19:02:00,77.5,65.7,29.91,ENE,73,4.0,4.0,67,0.00,,,0.01,Wunderground v.1.15,2013-02-19 08:02:00,
2013-02-19 19:07:00,77.2,65.4,29.91,NE,42,2.0,6.0,67,0.00,,,0.01,Wunderground v.1.15,2013-02-19 08:07:00,
2013-02-19 19:12:00,77.0,65.6,29.91,NNE,29,0.0,2.0,68,0.00,,,0.01,Wunderground v.1.15,2013-02-19 08:12:00,
2013-02-19 19:17:00,76.7,64.9,29.92,NE,45,1.0,5.0,67,0.00,,,0.01,Wunderground v.1.15,2013-02-19 08:17:00,
2013-02-19 19:22:00,76.3,65.0,29.92,ESE,110,3.0,3.0,68,0.00,,,0.01,Wunderground v.1.15,2013-02-19 08:22:00,
2013-02-19 19:27:00,75.9,64.2,29.92,ENE,70,1.0,4.0,67,0.00,,,0.01,Wunderground v.1.15,2013-02-19 08:27:00,
2013-02-19 19:32:00,75.5,64.2,29.92,SE,129,2.0,2.0,68,0.00,,,0.01,Wunderground v.1.15,2013-02-19 08:32:00,
2013-02-19 19:37:00,75.3,64.4,29.92,NE,46,2.0,6.0,69,0.00,,,0.01,Wunderground v.1.15,2013-02-19 08:37:00,
2013-02-19 19:42:00,75.0,64.1,29.92,ESE,110,1.0,3.0,69,0.00,,,0.01,Wunderground v.1.15,2013-02-19 08:42:00,
2013-02-19 19:47:00,74.7,64.3,29.92,NE,56,0.0,3.0,70,0.00,,,0.01,Wunderground v.1.15,2013-02-19 08:47:00,
2013-02-19 19:52:00,74.4,64.0,29.92,ENE,72,0.0,1.0,70,0.00,,,0.01,Wunderground v.1.15,2013-02-19 08:52:00,
2013-02-19 19:57:00,74.2,64.2,29.93,SSE,162,0.0,3.0,71,0.00,,,0.01,Wunderground v.1.15,2013-02-19 08:57:00,
2013-02-19 20:02:00,73.9,64.3,29.93,South,169,0.0,0.0,72,0.00,,,0.01,Wunderground v.1.15,2013-02-19 09:02:00,
2013-02-19 20:07:00,73.7,64.1,29.93,SE,131,0.0,2.0,72,0.00,,,0.01,Wunderground v.1.15,2013-02-19 09:07:00,
2013-02-19 20:12:00,73.5,64.3,29.93,South,169,0.0,0.0,73,0.00,,,0.01,Wunderground v.1.15,2013-02-19 09:12:00,
2013-02-19 20:17:00,73.1,64.3,29.93,SW,233,1.0,1.0,74,0.00,,,0.01,Wunderground v.1.15,2013-02-19 09:17:00,
2013-02-19 20:22:00,72.7,64.3,29.93,SSW,199,0.0,0.0,75,0.00,,,0.01,Wunderground v.1.15,2013-02-19 09:22:00,
2013-02-19 20:27:00,72.4,64.4,29.94,SSW,199,0.0,1.0,76,0.00,,,0.01,Wunderground v.1.15,2013-02-19 09:27:00,
2013-02-19 20:32:00,72.1,64.5,29.94,South,184,0.0,1.0,77,0.00,,,0.01,Wunderground v.1.15,2013-02-19 09:32:00,
2013-02-19 20:37:00,72.1,64.9,29.94,SSE,159,0.0,1.0,78,0.00,,,0.01,Wunderground v.1.15,2013-02-19 09:37:00,
2013-02-19 20:42:00,71.9,64.7,29.94,SSE,159,0.0,0.0,78,0.00,,,0.01,Wunderground v.1.15,2013-02-19 09:42:00,
2013-02-19 20:47:00,71.6,64.7,29.94,SSE,160,0.0,1.0,79,0.00,,,0.01,Wunderground v.1.15,2013-02-19 09:47:00,
2013-02-19 20:52:00,71.4,64.5,29.94,SSE,160,0.0,0.0,79,0.00,,,0.01,Wunderground v.1.15,2013-02-19 09:52:00,
2013-02-19 20:58:00,71.0,64.5,29.94,SSE,160,0.0,1.0,80,0.00,,,0.01,Wunderground v.1.15,2013-02-19 09:58:00,
2013-02-19 21:03:00,70.7,64.2,29.94,SSE,160,0.0,0.0,80,0.00,,,0.01,Wunderground v.1.15,2013-02-19 10:03:00,
2013-02-19 21:08:00,70.4,64.3,29.95,SSE,160,0.0,0.0,81,0.00,,,0.01,Wunderground v.1.15,2013-02-19 10:08:00,
2013-02-19 21:13:00,70.1,64.3,29.95,SSE,160,0.0,0.0,82,0.00,,,0.01,Wunderground v.1.15,2013-02-19 10:13:00,
2013-02-19 21:18:00,69.9,64.2,29.95,SSE,160,0.0,0.0,82,0.00,,,0.01,Wunderground v.1.15,2013-02-19 10:18:00,
2013-02-19 21:23:00,69.6,64.2,29.95,SSE,160,0.0,0.0,83,0.00,,,0.01,Wunderground v.1.15,2013-02-19 10:23:00,
2013-02-19 21:28:00,69.3,63.9,29.95,SSE,160,0.0,0.0,83,0.00,,,0.01,Wunderground v.1.15,2013-02-19 10:28:00,
2013-02-19 21:33:00,69.0,63.6,29.95,SSE,160,0.0,0.0,83,0.00,,,0.01,Wunderground v.1.15,2013-02-19 10:33:00,
2013-02-19 21:38:00,68.7,64.0,29.95,SSE,160,0.0,0.0,85,0.00,,,0.01,Wunderground v.1.15,2013-02-19 10:38:00,
2013-02-19 21:43:00,68.7,64.3,29.95,West,278,0.0,0.0,86,0.00,,,0.01,Wunderground v.1.15,2013-02-19 10:43:00,
2013-02-19 21:48:00,68.5,64.1,29.95,West,279,0.0,1.0,86,0.00,,,0.01,Wunderground v.1.15,2013-02-19 10:48:00,
2013-02-19 21:53:00,68.2,63.9,29.95,West,279,0.0,0.0,86,0.00,,,0.01,Wunderground v.1.15,2013-02-19 10:53:00,
2013-02-19 21:58:00,68.0,64.0,29.96,West,278,0.0,0.0,87,0.00,,,0.01,Wunderground v.1.15,2013-02-19 10:58:00,
2013-02-19 22:03:00,67.8,63.8,29.96,West,278,0.0,0.0,87,0.00,,,0.01,Wunderground v.1.15,2013-02-19 11:03:00,
2013-02-19 22:08:00,67.6,63.9,29.96,West,278,0.0,0.0,88,0.00,,,0.01,Wunderground v.1.15,2013-02-19 11:08:00,
2013-02-19 22:13:00,67.4,63.7,29.96,West,279,0.0,0.0,88,0.00,,,0.01,Wunderground v.1.15,2013-02-19 11:13:00,
2013-02-19 22:18:00,67.1,63.4,29.96,West,278,0.0,0.0,88,0.00,,,0.01,Wunderground v.1.15,2013-02-19 11:18:00,
2013-02-19 22:23:00,67.0,63.6,29.96,West,278,0.0,0.0,89,0.00,,,0.01,Wunderground v.1.15,2013-02-19 11:23:00,
2013-02-19 22:28:00,67.0,64.0,29.96,West,278,0.0,0.0,90,0.00,,,0.01,Wunderground v.1.15,2013-02-19 11:28:00,
2013-02-19 22:33:00,66.9,63.9,29.96,West,278,0.0,0.0,90,0.00,,,0.01,Wunderground v.1.15,2013-02-19 11:33:00,
2013-02-19 22:38:00,66.7,63.7,29.96,West,278,0.0,0.0,90,0.00,,,0.01,Wunderground v.1.15,2013-02-19 11:38:00,
2013-02-19 22:43:00,66.6,63.6,29.96,West,278,0.0,0.0,90,0.00,,,0.01,Wunderground v.1.15,2013-02-19 11:43:00,
2013-02-19 22:48:00,66.6,63.9,29.96,West,279,0.0,0.0,91,0.00,,,0.01,Wunderground v.1.15,2013-02-19 11:48:00,
2013-02-19 22:53:00,66.3,63.6,29.96,West,278,0.0,0.0,91,0.00,,,0.01,Wunderground v.1.15,2013-02-19 11:53:00,
2013-02-19 22:58:00,66.3,63.6,29.96,West,278,0.0,0.0,91,0.00,,,0.01,Wunderground v.1.15,2013-02-19 11:58:00,
2013-02-19 23:03:00,66.2,63.5,29.96,West,278,0.0,0.0,91,0.00,,,0.01,Wunderground v.1.15,2013-02-19 12:03:00,
2013-02-19 23:08:00,65.9,63.2,29.96,West,278,0.0,0.0,91,0.00,,,0.01,Wunderground v.1.15,2013-02-19 12:08:00,
2013-02-19 23:13:00,65.9,63.5,29.96,West,279,0.0,0.0,92,0.00,,,0.01,Wunderground v.1.15,2013-02-19 12:13:00,
2013-02-19 23:18:00,65.7,63.3,29.96,West,278,0.0,0.0,92,0.00,,,0.01,Wunderground v.1.15,2013-02-19 12:18:00,
2013-02-19 23:23:00,65.6,63.2,29.96,West,278,0.0,0.0,92,0.00,,,0.01,Wunderground v.1.15,2013-02-19 12:23:00,
2013-02-19 23:28:00,65.5,63.1,29.96,West,278,0.0,0.0,92,0.00,,,0.01,Wunderground v.1.15,2013-02-19 12:28:00,
2013-02-19 23:33:00,65.5,63.1,29.96,West,278,0.0,0.0,92,0.00,,,0.01,Wunderground v.1.15,2013-02-19 12:33:00,
2013-02-19 23:39:00,65.4,63.0,29.96,West,278,0.0,0.0,92,0.00,,,0.01,Wunderground v.1.15,2013-02-19 12:39:00,
2013-02-19 23:44:00,65.1,62.7,29.96,West,278,0.0,0.0,92,0.00,,,0.01,Wunderground v.1.15,2013-02-19 12:44:00,
2013-02-19 23:49:00,64.9,62.5,29.96,West,278,0.0,0.0,92,0.00,,,0.01,Wunderground v.1.15,2013-02-19 12:49:00,
2013-02-19 23:54:00,64.9,62.8,29.96,West,278,0.0,0.0,93,0.00,,,0.01,Wunderground v.1.15,2013-02-19 12:54:00,
2013-02-19 23:59:00,64.9,62.8,29.96,West,278,0.0,0.0,93,0.00,,,0.01,Wunderground v.1.15,2013-02-19 12:59:00,